Heinz Schepers — V2OM7 — position and weather

sailwx.info

Track history (hours):
 
Tides and Currents Weather Stations Pressure Air Temp Water Temp Dewpoint Dewpoint Depression Visibility Wind Speed Wind Dir Waves Ship Positions

Heinz Schepers

Last reported at 2018-Apr-25 10:28 UTC. Time now 2018-Apr-25 10:45 UTC.
Position N 53°32' E 009°55'.

Length 101 m; draft 5.6 m.

Type: Cargo ship. MMSI: 304596000.

Date/timePositionNaut miles runAvg speedWind from/ knotsBaromVisibWave heightAir tempDewpointWater temp
2018-Apr-25 10:28N 53°32' E 009°55'0 0.0
2018-Apr-25 09:58N 53°32' E 009°55'0 0.0
2018-Apr-25 09:28N 53°32' E 009°55'0 0.0
2018-Apr-25 08:58N 53°32' E 009°55'0 0.0
2018-Apr-25 08:28N 53°32' E 009°55'0 0.0
2018-Apr-25 07:58N 53°32' E 009°55'0 0.0
2018-Apr-25 07:28N 53°32' E 009°55'0 0.0
2018-Apr-25 06:58N 53°32' E 009°55'0 0.0
2018-Apr-25 06:28N 53°32' E 009°55'0 0.0
2018-Apr-25 06:01N 53°32' E 009°55'0 0.0
2018-Apr-25 05:31N 53°32' E 009°55'0 0.0
2018-Apr-25 05:00N 53°32' E 009°55'0 0.0
2018-Apr-25 04:30N 53°32' E 009°55'0 0.0
2018-Apr-25 03:57N 53°32' E 009°55'0 0.0
2018-Apr-25 03:30N 53°32' E 009°55'1 2.6
2018-Apr-25 03:00N 53°33' E 009°53'4 8.3
2018-Apr-25 02:30N 53°34' E 009°46'5 9.9
2018-Apr-25 02:00N 53°35' E 009°38'611.0
2018-Apr-25 01:30N 53°39' E 009°31'510.6
2018-Apr-25 01:00N 53°43' E 009°28'510.2
2018-Apr-25 00:30N 53°48' E 009°23'510.9
2018-Apr-25 00:00N 53°52' E 009°17'510.4
2018-Apr-24 23:30N 53°53' E 009°08'5 9.9
2018-Apr-24 23:00N 53°51' E 009°00'611.3
2018-Apr-24 22:30N 53°50' E 008°51'510.8
2018-Apr-24 22:00N 53°53' E 008°43'611.2
2018-Apr-24 21:30N 53°57' E 008°37'612.2
2018-Apr-24 21:00N 53°59' E 008°27'16 7.0
2018-Apr-24 18:45N 53°50' E 008°04'313.9
2018-Apr-24 18:30N 53°48' E 008°08'713.7
2018-Apr-24 17:58N 53°43' E 008°18'612.7
2018-Apr-24 17:30N 53°39' E 008°25'5 8.3
2018-Apr-24 16:58N 53°36' E 008°31'0 0.0
2018-Apr-24 16:28N 53°36' E 008°31'0 0.0
2018-Apr-24 15:58N 53°36' E 008°31'0 0.0
2018-Apr-24 15:28N 53°36' E 008°31'0 0.0
2018-Apr-24 14:58N 53°36' E 008°31'0 0.0
2018-Apr-24 14:28N 53°36' E 008°31'0 0.0
2018-Apr-24 13:58N 53°36' E 008°31'0 0.0
2018-Apr-24 13:28N 53°36' E 008°31'0 0.0
2018-Apr-24 12:58N 53°36' E 008°31'0 0.0
2018-Apr-24 12:28N 53°36' E 008°31'0 0.0
2018-Apr-24 11:58N 53°36' E 008°31'0 0.3
2018-Apr-24 11:30N 53°36' E 008°30'3 5.7
2018-Apr-24 11:00N 53°38' E 008°27'611.1
2018-Apr-24 10:30N 53°42' E 008°20'611.8
2018-Apr-24 10:00N 53°45' E 008°12'611.4
2018-Apr-24 09:27N 53°50' E 008°04'911.0
2018-Apr-24 08:37N 53°53' E 007°50'2 8.3
2018-Apr-24 08:25N 53°54' E 007°52'23 3.4
2018-Apr-24 01:46N 53°59' E 008°30'413.1
2018-Apr-24 01:30N 53°58' E 008°36'815.2
2018-Apr-24 00:59N 53°52' E 008°44'714.5
2018-Apr-24 00:30N 53°51' E 008°56'815.2
2018-Apr-24 00:00N 53°53' E 009°08'0 0.8
2018-Apr-23 23:30N 53°54' E 009°09'0 0.9
2018-Apr-23 23:00N 53°54' E 009°09'4 7.9
2018-Apr-23 22:30N 53°57' E 009°14'4 8.3
2018-Apr-23 22:00N 54°00' E 009°18'4 8.2
2018-Apr-23 21:30N 54°04' E 009°19'4 8.3
2018-Apr-23 21:00N 54°08' E 009°21'4 8.5
2018-Apr-23 20:30N 54°10' E 009°27'4 8.5
2018-Apr-23 20:00N 54°12' E 009°34'4 7.6
2018-Apr-23 19:30N 54°15' E 009°37'4 7.6
2018-Apr-23 19:00N 54°18' E 009°42'4 7.7
2018-Apr-23 18:30N 54°21' E 009°46'4 7.9
2018-Apr-23 17:59N 54°21' E 009°53'13 4.4
2018-Apr-23 14:57N 54°27' E 010°14'511.3
2018-Apr-23 14:30N 54°30' E 010°20'612.6
2018-Apr-23 14:00N 54°33' E 010°29'612.9
2018-Apr-23 13:30N 54°35' E 010°40'713.1
2018-Apr-23 13:00N 54°36' E 010°51'713.3
2018-Apr-23 12:30N 54°36' E 011°03'713.2
2018-Apr-23 12:00N 54°35' E 011°14'713.4
2018-Apr-23 11:30N 54°32' E 011°25'713.3
2018-Apr-23 11:00N 54°30' E 011°35'713.2
2018-Apr-23 10:30N 54°27' E 011°45'713.1
2018-Apr-23 10:00N 54°26' E 011°57'713.5
2018-Apr-23 09:30N 54°26' E 012°08'613.2
2018-Apr-23 09:01N 54°32' E 012°13'5712.9
2018-Apr-23 04:34N 54°59' E 013°40'213.0
2018-Apr-23 04:26N 55°00' E 013°43'2013.0
2018-Apr-23 02:54N 55°10' E 014°13'713.3
2018-Apr-23 02:24N 55°16' E 014°20'513.9
2018-Apr-23 02:01N 55°20' E 014°25'714.1
2018-Apr-23 01:30N 55°26' E 014°33'713.7
2018-Apr-23 01:00N 55°32' E 014°38'714.0
2018-Apr-23 00:30N 55°39' E 014°41'713.7
2018-Apr-23 00:01N 55°45' E 014°43'713.8
2018-Apr-22 23:30N 55°52' E 014°46'913.8
2018-Apr-22 22:50N 56°01' E 014°49'413.7
2018-Apr-22 22:30N 56°06' E 014°49'4 7.4
2018-Apr-22 22:00N 56°09' E 014°49'0 0.0
2018-Apr-22 21:28N 56°09' E 014°49'0 0.0
2018-Apr-22 20:04N 56°09' E 014°49'0 0.0
2018-Apr-22 19:58N 56°09' E 014°49'0 0.0
2018-Apr-22 19:25N 56°09' E 014°49'0 0.0
2018-Apr-22 17:22N 56°09' E 014°49'0 0.0
2018-Apr-22 16:49N 56°09' E 014°49'0 0.0
2018-Apr-22 16:25N 56°09' E 014°49'0 0.0
2018-Apr-22 15:58N 56°09' E 014°49'0 0.0
2018-Apr-22 14:15N 56°09' E 014°49'0 1.0
2018-Apr-22 14:00N 56°09' E 014°49'5 9.7
2018-Apr-22 13:30N 56°04' E 014°49'713.6
2018-Apr-22 13:01N 55°58' E 014°44'714.1
2018-Apr-22 12:30N 55°55' E 014°33'711.6
2018-Apr-22 11:53N 55°56' E 014°20'0 0.0
2018-Apr-22 06:42N 55°56' E 014°19'0 0.0
2018-Apr-22 06:27N 55°56' E 014°19'0 0.0
2018-Apr-22 06:00N 55°56' E 014°19'0 0.0
2018-Apr-22 05:30N 55°56' E 014°19'0 0.0
2018-Apr-22 05:00N 55°56' E 014°19'7 0.6
2018-Apr-21 17:00N 55°55' E 014°31'4 8.0
2018-Apr-21 16:31N 55°55' E 014°38'610.2
2018-Apr-21 15:58N 55°55' E 014°48'510.0
2018-Apr-21 15:31N 55°55' E 014°56'510.0
2018-Apr-21 15:01N 55°55' E 015°05'611.3
2018-Apr-21 14:31N 55°54' E 015°15'612.8
2018-Apr-21 14:00N 55°54' E 015°27'612.9
2018-Apr-21 13:31N 55°54' E 015°38'612.6
2018-Apr-21 13:01N 55°56' E 015°49'612.5
2018-Apr-21 12:31N 55°58' E 015°60'612.7
2018-Apr-21 12:01N 55°60' E 016°10'611.0
2018-Apr-21 11:31N 56°02' E 016°20'510.3
2018-Apr-21 11:00N 56°04' E 016°28'510.1
2018-Apr-21 10:31N 56°06' E 016°36'510.2
2018-Apr-21 10:01N 56°09' E 016°44'510.2
2018-Apr-21 09:31N 56°14' E 016°47'510.6
2018-Apr-21 09:01N 56°19' E 016°51'510.8
2018-Apr-21 08:30N 56°24' E 016°55'13611.9
2018-Apr-20 21:01N 58°37' E 017°52'011.4
2018-Apr-20 21:00N 58°37' E 017°52'611.1
2018-Apr-20 20:30N 58°42' E 017°52'610.7
2018-Apr-20 19:55N 58°48' E 017°46'814.1
2018-Apr-20 19:23N 58°55' E 017°43'514.0
2018-Apr-20 19:00N 59°00' E 017°43'7 0.4
2018-Apr-20 04:32N 59°07' E 017°41'1 8.5
2018-Apr-20 04:29N 59°06' E 017°42'4 9.0
2018-Apr-20 04:00N 59°02' E 017°42'612.8
2018-Apr-20 03:30N 58°56' E 017°43'714.1
2018-Apr-20 03:00N 58°49' E 017°45'713.7
2018-Apr-20 02:27N 58°42' E 017°52'611.5
2018-Apr-20 01:55N 58°36' E 017°53'3912.4
2018-Apr-19 22:47N 57°57' E 017°51'10013.0
2018-Apr-19 15:06N 56°21' E 017°01'414.9
2018-Apr-19 14:50N 56°17' E 016°59'714.8
2018-Apr-19 14:21N 56°10' E 016°53'514.7
2018-Apr-19 14:01N 56°06' E 016°50'714.6
2018-Apr-19 13:30N 56°02' E 016°39'914.8
2018-Apr-19 12:54N 55°57' E 016°25'614.6
2018-Apr-19 12:29N 55°54' E 016°16'714.6
2018-Apr-19 12:00N 55°51' E 016°05'814.7
2018-Apr-19 11:29N 55°47' E 015°54'714.8
2018-Apr-19 11:00N 55°43' E 015°43'714.7
2018-Apr-19 10:31N 55°40' E 015°31'714.6
2018-Apr-19 10:00N 55°36' E 015°20'714.7
2018-Apr-19 09:31N 55°33' E 015°08'714.6
2018-Apr-19 09:00N 55°29' E 014°57'714.4
2018-Apr-19 08:30N 55°25' E 014°46'714.5
2018-Apr-19 08:00N 55°20' E 014°37'714.7
2018-Apr-19 07:30N 55°15' E 014°28'714.8
2018-Apr-19 07:01N 55°09' E 014°20'714.8
2018-Apr-19 06:31N 55°03' E 014°12'1514.1
2018-Apr-19 05:25N 54°56' E 013°48'615.0
2018-Apr-19 05:00N 54°54' E 013°38'1214.7
2018-Apr-19 04:11N 54°51' E 013°17'1414.4
2018-Apr-19 03:12N 54°47' E 012°54'314.4
2018-Apr-19 02:58N 54°46' E 012°49'714.4
2018-Apr-19 02:28N 54°42' E 012°37'714.6
2018-Apr-19 02:00N 54°39' E 012°28'714.1
2018-Apr-19 01:31N 54°34' E 012°18'2212.4
2018-Apr-18 23:46N 54°24' E 011°46'414.5
2018-Apr-18 23:30N 54°26' E 011°40'714.8
2018-Apr-18 23:01N 54°29' E 011°28'815.1
2018-Apr-18 22:31N 54°33' E 011°17'714.6
2018-Apr-18 22:01N 54°35' E 011°05'714.8
2018-Apr-18 21:31N 54°34' E 010°52'714.6
2018-Apr-18 21:00N 54°33' E 010°40'714.2
2018-Apr-18 20:31N 54°32' E 010°28'20 6.0
2018-Apr-18 17:13N 54°21' E 009°59'2 8.3
2018-Apr-18 16:56N 54°21' E 009°55'4 8.2
2018-Apr-18 16:30N 54°22' E 009°50'4 8.3
2018-Apr-18 16:00N 54°20' E 009°43'4 7.7
2018-Apr-18 15:30N 54°17' E 009°39'3 5.5
2018-Apr-18 15:00N 54°15' E 009°37'4 8.3
2018-Apr-18 14:30N 54°12' E 009°32'4 9.0
2018-Apr-18 14:00N 54°10' E 009°25'4 8.3
2018-Apr-18 13:30N 54°07' E 009°20'4 8.9
2018-Apr-18 13:00N 54°02' E 009°18'4 8.3
2018-Apr-18 12:31N 53°59' E 009°16'4 7.6
2018-Apr-18 12:00N 53°56' E 009°12'3 5.6
2018-Apr-18 11:31N 53°54' E 009°09'0 0.1
2018-Apr-18 10:59N 53°54' E 009°09'1 2.1
2018-Apr-18 10:30N 53°53' E 009°08'4 8.4
2018-Apr-18 10:00N 53°53' E 009°15'815.1
2018-Apr-18 09:30N 53°47' E 009°23'714.1
2018-Apr-18 09:01N 53°41' E 009°30'713.5
2018-Apr-18 08:31N 53°36' E 009°36'612.4
2018-Apr-18 08:00N 53°34' E 009°46'611.1
2018-Apr-18 07:30N 53°33' E 009°55'3 5.0
2018-Apr-18 06:58N 53°32' E 009°60'0 0.0
2018-Apr-18 06:28N 53°32' E 009°60'0 0.0
2018-Apr-18 05:58N 53°32' E 009°60'0 0.0
2018-Apr-18 05:28N 53°32' E 009°60'0 0.0
2018-Apr-18 04:58N 53°32' E 009°60'0 0.0
2018-Apr-18 04:30N 53°32' E 009°60'0 0.7
2018-Apr-18 04:00N 53°32' E 009°59'3 5.2
2018-Apr-18 03:30N 53°32' E 009°55'0 0.4
2018-Apr-18 03:00N 53°32' E 009°55'0 0.0
2018-Apr-18 02:30N 53°32' E 009°55'0 0.0
2018-Apr-18 02:00N 53°32' E 009°55'0 0.0
2018-Apr-18 01:30N 53°32' E 009°55'0 0.0
2018-Apr-18 01:00N 53°32' E 009°55'0 0.0
2018-Apr-18 00:30N 53°32' E 009°55'0 0.0
2018-Apr-18 00:00N 53°32' E 009°55'0 0.0
2018-Apr-17 23:30N 53°32' E 009°55'0 0.0
2018-Apr-17 23:00N 53°32' E 009°55'0 0.0
2018-Apr-17 22:30N 53°32' E 009°55'0 0.0
2018-Apr-17 22:00N 53°32' E 009°55'0 0.0
2018-Apr-17 21:30N 53°32' E 009°55'0 0.0
2018-Apr-17 21:00N 53°32' E 009°55'0 0.0
2018-Apr-17 20:30N 53°32' E 009°55'0 0.0
2018-Apr-17 20:00N 53°32' E 009°55'0 0.0
2018-Apr-17 19:30N 53°32' E 009°55'0 0.0
2018-Apr-17 19:00N 53°32' E 009°55'0 0.0
2018-Apr-17 18:30N 53°32' E 009°55'0 0.0
2018-Apr-17 18:00N 53°32' E 009°55'0 0.0
2018-Apr-17 17:30N 53°32' E 009°55'0 0.0
2018-Apr-17 17:00N 53°32' E 009°55'0 0.0
2018-Apr-17 16:30N 53°32' E 009°55'0 0.0
2018-Apr-17 16:00N 53°32' E 009°55'0 0.0
2018-Apr-17 15:30N 53°32' E 009°55'0 0.0
2018-Apr-17 15:00N 53°32' E 009°55'0 0.0
2018-Apr-17 14:30N 53°32' E 009°55'0 0.0
2018-Apr-17 14:00N 53°32' E 009°55'0 0.0
2018-Apr-17 13:30N 53°32' E 009°55'0 0.0
2018-Apr-17 13:00N 53°32' E 009°55'0 0.2
2018-Apr-17 12:30N 53°32' E 009°55'1 2.1
2018-Apr-17 11:59N 53°32' E 009°54'0 0.2
2018-Apr-17 11:29N 53°32' E 009°54'0 0.0
2018-Apr-17 10:59N 53°32' E 009°54'0 0.0
2018-Apr-17 10:29N 53°32' E 009°54'0 0.0
2018-Apr-17 09:59N 53°32' E 009°54'0 0.0
2018-Apr-17 09:29N 53°32' E 009°54'0 0.0
2018-Apr-17 08:59N 53°32' E 009°54'0 0.0
2018-Apr-17 08:29N 53°32' E 009°54'0 0.0
2018-Apr-17 07:59N 53°32' E 009°54'0 0.0
2018-Apr-17 07:29N 53°32' E 009°54'0 0.0
2018-Apr-17 06:59N 53°32' E 009°54'0 0.0
2018-Apr-17 06:29N 53°32' E 009°54'0 0.0
2018-Apr-17 05:59N 53°32' E 009°54'0 0.0
2018-Apr-17 05:29N 53°32' E 009°54'0 0.0
2018-Apr-17 04:59N 53°32' E 009°54'1 3.1
2018-Apr-17 04:30N 53°31' E 009°56'1 2.2
2018-Apr-17 04:00N 53°30' E 009°56'0 0.0
2018-Apr-17 03:30N 53°30' E 009°56'0 0.0
2018-Apr-17 03:00N 53°30' E 009°56'0 0.0
2018-Apr-17 02:30N 53°30' E 009°56'0 0.0
2018-Apr-17 02:00N 53°30' E 009°56'0 0.0
2018-Apr-17 01:30N 53°30' E 009°56'0 0.0
2018-Apr-17 01:00N 53°30' E 009°56'0 0.0
2018-Apr-17 00:30N 53°30' E 009°56'0 0.0
2018-Apr-17 00:00N 53°30' E 009°56'2 4.3
2018-Apr-16 23:30N 53°32' E 009°55'611.4
2018-Apr-16 23:00N 53°34' E 009°46'611.9
2018-Apr-16 22:30N 53°35' E 009°36'612.3
2018-Apr-16 22:00N 53°40' E 009°30'612.1
2018-Apr-16 21:30N 53°45' E 009°24'612.1
2018-Apr-16 21:00N 53°51' E 009°20'611.9
2018-Apr-16 20:30N 53°53' E 009°10'5 9.4
2018-Apr-16 20:01N 53°52' E 009°02'611.1
2018-Apr-16 19:31N 53°50' E 008°53'510.5
2018-Apr-16 19:00N 53°52' E 008°44'510.1
2018-Apr-16 18:30N 53°56' E 008°40'511.0
2018-Apr-16 18:00N 53°58' E 008°31'611.5
2018-Apr-16 17:30N 53°59' E 008°22'713.1
2018-Apr-16 17:01N 53°60' E 008°11'714.1
2018-Apr-16 16:30N 53°57' E 007°59'610.5
2018-Apr-16 15:57N 53°52' E 007°55'715.1
2018-Apr-16 15:30N 53°50' E 008°06'816.8
2018-Apr-16 15:00N 53°44' E 008°15'816.3
2018-Apr-16 14:30N 53°39' E 008°26'5 9.0
2018-Apr-16 13:58N 53°35' E 008°32'0 0.0
2018-Apr-16 13:28N 53°35' E 008°32'0 0.0
2018-Apr-16 12:58N 53°35' E 008°32'0 0.0
2018-Apr-16 12:28N 53°35' E 008°32'0 0.0
2018-Apr-16 11:58N 53°35' E 008°32'0 0.0
2018-Apr-16 11:28N 53°35' E 008°32'0 0.0
2018-Apr-16 10:58N 53°35' E 008°32'0 0.0
2018-Apr-16 10:28N 53°35' E 008°32'0 0.0
2018-Apr-16 09:58N 53°35' E 008°32'0 0.5
2018-Apr-16 09:30N 53°35' E 008°31'0 0.8
2018-Apr-16 09:00N 53°36' E 008°31'0 0.0
2018-Apr-16 08:30N 53°36' E 008°31'0 0.0
2018-Apr-16 08:00N 53°36' E 008°31'0 0.0
2018-Apr-16 07:30N 53°36' E 008°31'0 0.0
2018-Apr-16 07:00N 53°36' E 008°31'0 0.0
2018-Apr-16 06:30N 53°36' E 008°31'0 0.0
2018-Apr-16 06:00N 53°36' E 008°31'0 0.0
2018-Apr-16 05:30N 53°36' E 008°31'0 0.0
2018-Apr-16 05:00N 53°36' E 008°31'0 0.0
2018-Apr-16 04:30N 53°36' E 008°31'0 0.0
2018-Apr-16 04:00N 53°36' E 008°31'0 0.2
2018-Apr-16 03:30N 53°36' E 008°31'4 8.7
2018-Apr-16 03:00N 53°38' E 008°25'510.5
2018-Apr-16 02:30N 53°42' E 008°19'611.2
2018-Apr-16 02:00N 53°46' E 008°11'510.6
2018-Apr-16 01:30N 53°49' E 008°05'611.8
2018-Apr-16 01:00N 53°52' E 007°56'4 7.2
2018-Apr-16 00:28N 53°55' E 007°56'614.1
2018-Apr-16 00:00N 53°60' E 008°04'1112.5
2018-Apr-15 23:09N 53°59' E 008°23'213.7
2018-Apr-15 23:00N 53°59' E 008°26'712.8
2018-Apr-15 22:30N 53°58' E 008°37'511.2
2018-Apr-15 22:00N 53°53' E 008°42'510.6
2018-Apr-15 21:30N 53°50' E 008°50'612.2
2018-Apr-15 21:00N 53°51' E 009°00'611.0
2018-Apr-15 20:30N 53°54' E 009°09'0 0.1
2018-Apr-15 20:00N 53°54' E 009°09'1 2.6
2018-Apr-15 19:30N 53°55' E 009°10'4 8.6
2018-Apr-15 19:00N 53°58' E 009°15'4 8.4
2018-Apr-15 18:30N 54°02' E 009°18'4 8.0
2018-Apr-15 18:00N 54°06' E 009°20'4 7.9
2018-Apr-15 17:30N 54°09' E 009°22'4 8.7
2018-Apr-15 17:00N 54°11' E 009°29'4 8.9
2018-Apr-15 16:30N 54°13' E 009°36'4 7.9
2018-Apr-15 16:00N 54°17' E 009°38'4 7.0
2018-Apr-15 15:30N 54°19' E 009°43'2 4.5
2018-Apr-15 15:00N 54°21' E 009°45'4 7.6
2018-Apr-15 14:26N 54°21' E 009°53'4 7.8
2018-Apr-15 13:57N 54°21' E 009°59'14 5.0
2018-Apr-15 11:06N 54°30' E 010°18'110.4
2018-Apr-15 11:00N 54°30' E 010°19'713.8
2018-Apr-15 10:30N 54°33' E 010°30'  
Track history (hours):
 
Tides and Currents Weather Stations Pressure Air Temp Water Temp Dewpoint Dewpoint Depression Visibility Wind Speed Wind Dir Waves Ship Positions

Heinz Schepers

Last reported at 2018-Apr-25 10:28 UTC. Time now 2018-Apr-25 10:45 UTC.
Position N 53°32' E 009°55'.

Length 101 m; draft 5.6 m.

Type: Cargo ship. MMSI: 304596000.

Date/timePositionNaut miles runAvg speedWind from/ knotsBaromVisibWave heightAir tempDewpointWater temp
2018-Apr-25 10:28N 53°32' E 009°55'0 0.0
2018-Apr-25 09:58N 53°32' E 009°55'0 0.0
2018-Apr-25 09:28N 53°32' E 009°55'0 0.0
2018-Apr-25 08:58N 53°32' E 009°55'0 0.0
2018-Apr-25 08:28N 53°32' E 009°55'0 0.0
2018-Apr-25 07:58N 53°32' E 009°55'0 0.0
2018-Apr-25 07:28N 53°32' E 009°55'0 0.0
2018-Apr-25 06:58N 53°32' E 009°55'0 0.0
2018-Apr-25 06:28N 53°32' E 009°55'0 0.0
2018-Apr-25 06:01N 53°32' E 009°55'0 0.0
2018-Apr-25 05:31N 53°32' E 009°55'0 0.0
2018-Apr-25 05:00N 53°32' E 009°55'0 0.0
2018-Apr-25 04:30N 53°32' E 009°55'0 0.0
2018-Apr-25 03:57N 53°32' E 009°55'0 0.0
2018-Apr-25 03:30N 53°32' E 009°55'1 2.6
2018-Apr-25 03:00N 53°33' E 009°53'4 8.3
2018-Apr-25 02:30N 53°34' E 009°46'5 9.9
2018-Apr-25 02:00N 53°35' E 009°38'611.0
2018-Apr-25 01:30N 53°39' E 009°31'510.6
2018-Apr-25 01:00N 53°43' E 009°28'510.2
2018-Apr-25 00:30N 53°48' E 009°23'510.9
2018-Apr-25 00:00N 53°52' E 009°17'510.4
2018-Apr-24 23:30N 53°53' E 009°08'5 9.9
2018-Apr-24 23:00N 53°51' E 009°00'611.3
2018-Apr-24 22:30N 53°50' E 008°51'510.8
2018-Apr-24 22:00N 53°53' E 008°43'611.2
2018-Apr-24 21:30N 53°57' E 008°37'612.2
2018-Apr-24 21:00N 53°59' E 008°27'16 7.0
2018-Apr-24 18:45N 53°50' E 008°04'313.9
2018-Apr-24 18:30N 53°48' E 008°08'713.7
2018-Apr-24 17:58N 53°43' E 008°18'612.7
2018-Apr-24 17:30N 53°39' E 008°25'5 8.3
2018-Apr-24 16:58N 53°36' E 008°31'0 0.0
2018-Apr-24 16:28N 53°36' E 008°31'0 0.0
2018-Apr-24 15:58N 53°36' E 008°31'0 0.0
2018-Apr-24 15:28N 53°36' E 008°31'0 0.0
2018-Apr-24 14:58N 53°36' E 008°31'0 0.0
2018-Apr-24 14:28N 53°36' E 008°31'0 0.0
2018-Apr-24 13:58N 53°36' E 008°31'0 0.0
2018-Apr-24 13:28N 53°36' E 008°31'0 0.0
2018-Apr-24 12:58N 53°36' E 008°31'0 0.0
2018-Apr-24 12:28N 53°36' E 008°31'0 0.0
2018-Apr-24 11:58N 53°36' E 008°31'0 0.3
2018-Apr-24 11:30N 53°36' E 008°30'3 5.7
2018-Apr-24 11:00N 53°38' E 008°27'611.1
2018-Apr-24 10:30N 53°42' E 008°20'611.8
2018-Apr-24 10:00N 53°45' E 008°12'611.4
2018-Apr-24 09:27N 53°50' E 008°04'911.0
2018-Apr-24 08:37N 53°53' E 007°50'2 8.3
2018-Apr-24 08:25N 53°54' E 007°52'23 3.4
2018-Apr-24 01:46N 53°59' E 008°30'413.1
2018-Apr-24 01:30N 53°58' E 008°36'815.2
2018-Apr-24 00:59N 53°52' E 008°44'714.5
2018-Apr-24 00:30N 53°51' E 008°56'815.2
2018-Apr-24 00:00N 53°53' E 009°08'0 0.8
2018-Apr-23 23:30N 53°54' E 009°09'0 0.9
2018-Apr-23 23:00N 53°54' E 009°09'4 7.9
2018-Apr-23 22:30N 53°57' E 009°14'4 8.3
2018-Apr-23 22:00N 54°00' E 009°18'4 8.2
2018-Apr-23 21:30N 54°04' E 009°19'4 8.3
2018-Apr-23 21:00N 54°08' E 009°21'4 8.5
2018-Apr-23 20:30N 54°10' E 009°27'4 8.5
2018-Apr-23 20:00N 54°12' E 009°34'4 7.6
2018-Apr-23 19:30N 54°15' E 009°37'4 7.6
2018-Apr-23 19:00N 54°18' E 009°42'4 7.7
2018-Apr-23 18:30N 54°21' E 009°46'4 7.9
2018-Apr-23 17:59N 54°21' E 009°53'13 4.4
2018-Apr-23 14:57N 54°27' E 010°14'511.3
2018-Apr-23 14:30N 54°30' E 010°20'612.6
2018-Apr-23 14:00N 54°33' E 010°29'612.9
2018-Apr-23 13:30N 54°35' E 010°40'713.1
2018-Apr-23 13:00N 54°36' E 010°51'713.3
2018-Apr-23 12:30N 54°36' E 011°03'713.2
2018-Apr-23 12:00N 54°35' E 011°14'713.4
2018-Apr-23 11:30N 54°32' E 011°25'713.3
2018-Apr-23 11:00N 54°30' E 011°35'713.2
2018-Apr-23 10:30N 54°27' E 011°45'713.1
2018-Apr-23 10:00N 54°26' E 011°57'713.5
2018-Apr-23 09:30N 54°26' E 012°08'613.2
2018-Apr-23 09:01N 54°32' E 012°13'5712.9
2018-Apr-23 04:34N 54°59' E 013°40'213.0
2018-Apr-23 04:26N 55°00' E 013°43'2013.0
2018-Apr-23 02:54N 55°10' E 014°13'713.3
2018-Apr-23 02:24N 55°16' E 014°20'513.9
2018-Apr-23 02:01N 55°20' E 014°25'714.1
2018-Apr-23 01:30N 55°26' E 014°33'713.7
2018-Apr-23 01:00N 55°32' E 014°38'714.0
2018-Apr-23 00:30N 55°39' E 014°41'713.7
2018-Apr-23 00:01N 55°45' E 014°43'713.8
2018-Apr-22 23:30N 55°52' E 014°46'913.8
2018-Apr-22 22:50N 56°01' E 014°49'413.7
2018-Apr-22 22:30N 56°06' E 014°49'4 7.4
2018-Apr-22 22:00N 56°09' E 014°49'0 0.0
2018-Apr-22 21:28N 56°09' E 014°49'0 0.0
2018-Apr-22 20:04N 56°09' E 014°49'0 0.0
2018-Apr-22 19:58N 56°09' E 014°49'0 0.0
2018-Apr-22 19:25N 56°09' E 014°49'0 0.0
2018-Apr-22 17:22N 56°09' E 014°49'0 0.0
2018-Apr-22 16:49N 56°09' E 014°49'0 0.0
2018-Apr-22 16:25N 56°09' E 014°49'0 0.0
2018-Apr-22 15:58N 56°09' E 014°49'0 0.0
2018-Apr-22 14:15N 56°09' E 014°49'0 1.0
2018-Apr-22 14:00N 56°09' E 014°49'5 9.7
2018-Apr-22 13:30N 56°04' E 014°49'713.6
2018-Apr-22 13:01N 55°58' E 014°44'714.1
2018-Apr-22 12:30N 55°55' E 014°33'711.6
2018-Apr-22 11:53N 55°56' E 014°20'0 0.0
2018-Apr-22 06:42N 55°56' E 014°19'0 0.0
2018-Apr-22 06:27N 55°56' E 014°19'0 0.0
2018-Apr-22 06:00N 55°56' E 014°19'0 0.0
2018-Apr-22 05:30N 55°56' E 014°19'0 0.0
2018-Apr-22 05:00N 55°56' E 014°19'7 0.6
2018-Apr-21 17:00N 55°55' E 014°31'4 8.0
2018-Apr-21 16:31N 55°55' E 014°38'610.2
2018-Apr-21 15:58N 55°55' E 014°48'510.0
2018-Apr-21 15:31N 55°55' E 014°56'510.0
2018-Apr-21 15:01N 55°55' E 015°05'611.3
2018-Apr-21 14:31N 55°54' E 015°15'612.8
2018-Apr-21 14:00N 55°54' E 015°27'612.9
2018-Apr-21 13:31N 55°54' E 015°38'612.6
2018-Apr-21 13:01N 55°56' E 015°49'612.5
2018-Apr-21 12:31N 55°58' E 015°60'612.7
2018-Apr-21 12:01N 55°60' E 016°10'611.0
2018-Apr-21 11:31N 56°02' E 016°20'510.3
2018-Apr-21 11:00N 56°04' E 016°28'510.1
2018-Apr-21 10:31N 56°06' E 016°36'510.2
2018-Apr-21 10:01N 56°09' E 016°44'510.2
2018-Apr-21 09:31N 56°14' E 016°47'510.6
2018-Apr-21 09:01N 56°19' E 016°51'510.8
2018-Apr-21 08:30N 56°24' E 016°55'13611.9
2018-Apr-20 21:01N 58°37' E 017°52'011.4
2018-Apr-20 21:00N 58°37' E 017°52'611.1
2018-Apr-20 20:30N 58°42' E 017°52'610.7
2018-Apr-20 19:55N 58°48' E 017°46'814.1
2018-Apr-20 19:23N 58°55' E 017°43'514.0
2018-Apr-20 19:00N 59°00' E 017°43'7 0.4
2018-Apr-20 04:32N 59°07' E 017°41'1 8.5
2018-Apr-20 04:29N 59°06' E 017°42'4 9.0
2018-Apr-20 04:00N 59°02' E 017°42'612.8
2018-Apr-20 03:30N 58°56' E 017°43'714.1
2018-Apr-20 03:00N 58°49' E 017°45'713.7
2018-Apr-20 02:27N 58°42' E 017°52'611.5
2018-Apr-20 01:55N 58°36' E 017°53'3912.4
2018-Apr-19 22:47N 57°57' E 017°51'10013.0
2018-Apr-19 15:06N 56°21' E 017°01'414.9
2018-Apr-19 14:50N 56°17' E 016°59'714.8
2018-Apr-19 14:21N 56°10' E 016°53'514.7
2018-Apr-19 14:01N 56°06' E 016°50'714.6
2018-Apr-19 13:30N 56°02' E 016°39'914.8
2018-Apr-19 12:54N 55°57' E 016°25'614.6
2018-Apr-19 12:29N 55°54' E 016°16'714.6
2018-Apr-19 12:00N 55°51' E 016°05'814.7
2018-Apr-19 11:29N 55°47' E 015°54'714.8
2018-Apr-19 11:00N 55°43' E 015°43'714.7
2018-Apr-19 10:31N 55°40' E 015°31'714.6
2018-Apr-19 10:00N 55°36' E 015°20'714.7
2018-Apr-19 09:31N 55°33' E 015°08'714.6
2018-Apr-19 09:00N 55°29' E 014°57'714.4
2018-Apr-19 08:30N 55°25' E 014°46'714.5
2018-Apr-19 08:00N 55°20' E 014°37'714.7
2018-Apr-19 07:30N 55°15' E 014°28'714.8
2018-Apr-19 07:01N 55°09' E 014°20'714.8
2018-Apr-19 06:31N 55°03' E 014°12'1514.1
2018-Apr-19 05:25N 54°56' E 013°48'615.0
2018-Apr-19 05:00N 54°54' E 013°38'1214.7
2018-Apr-19 04:11N 54°51' E 013°17'1414.4
2018-Apr-19 03:12N 54°47' E 012°54'314.4
2018-Apr-19 02:58N 54°46' E 012°49'714.4
2018-Apr-19 02:28N 54°42' E 012°37'714.6
2018-Apr-19 02:00N 54°39' E 012°28'714.1
2018-Apr-19 01:31N 54°34' E 012°18'2212.4
2018-Apr-18 23:46N 54°24' E 011°46'414.5
2018-Apr-18 23:30N 54°26' E 011°40'714.8
2018-Apr-18 23:01N 54°29' E 011°28'815.1
2018-Apr-18 22:31N 54°33' E 011°17'714.6
2018-Apr-18 22:01N 54°35' E 011°05'714.8
2018-Apr-18 21:31N 54°34' E 010°52'714.6
2018-Apr-18 21:00N 54°33' E 010°40'714.2
2018-Apr-18 20:31N 54°32' E 010°28'20 6.0
2018-Apr-18 17:13N 54°21' E 009°59'2 8.3
2018-Apr-18 16:56N 54°21' E 009°55'4 8.2
2018-Apr-18 16:30N 54°22' E 009°50'4 8.3
2018-Apr-18 16:00N 54°20' E 009°43'4 7.7
2018-Apr-18 15:30N 54°17' E 009°39'3 5.5
2018-Apr-18 15:00N 54°15' E 009°37'4 8.3
2018-Apr-18 14:30N 54°12' E 009°32'4 9.0
2018-Apr-18 14:00N 54°10' E 009°25'4 8.3
2018-Apr-18 13:30N 54°07' E 009°20'4 8.9
2018-Apr-18 13:00N 54°02' E 009°18'4 8.3
2018-Apr-18 12:31N 53°59' E 009°16'4 7.6
2018-Apr-18 12:00N 53°56' E 009°12'3 5.6
2018-Apr-18 11:31N 53°54' E 009°09'0 0.1
2018-Apr-18 10:59N 53°54' E 009°09'1 2.1
2018-Apr-18 10:30N 53°53' E 009°08'4 8.4
2018-Apr-18 10:00N 53°53' E 009°15'815.1
2018-Apr-18 09:30N 53°47' E 009°23'714.1
2018-Apr-18 09:01N 53°41' E 009°30'713.5
2018-Apr-18 08:31N 53°36' E 009°36'612.4
2018-Apr-18 08:00N 53°34' E 009°46'611.1
2018-Apr-18 07:30N 53°33' E 009°55'3 5.0
2018-Apr-18 06:58N 53°32' E 009°60'0 0.0
2018-Apr-18 06:28N 53°32' E 009°60'0 0.0
2018-Apr-18 05:58N 53°32' E 009°60'0 0.0
2018-Apr-18 05:28N 53°32' E 009°60'0 0.0
2018-Apr-18 04:58N 53°32' E 009°60'0 0.0
2018-Apr-18 04:30N 53°32' E 009°60'0 0.7
2018-Apr-18 04:00N 53°32' E 009°59'3 5.2
2018-Apr-18 03:30N 53°32' E 009°55'0 0.4
2018-Apr-18 03:00N 53°32' E 009°55'0 0.0
2018-Apr-18 02:30N 53°32' E 009°55'0 0.0
2018-Apr-18 02:00N 53°32' E 009°55'0 0.0
2018-Apr-18 01:30N 53°32' E 009°55'0 0.0
2018-Apr-18 01:00N 53°32' E 009°55'0 0.0
2018-Apr-18 00:30N 53°32' E 009°55'0 0.0
2018-Apr-18 00:00N 53°32' E 009°55'0 0.0
2018-Apr-17 23:30N 53°32' E 009°55'0 0.0
2018-Apr-17 23:00N 53°32' E 009°55'0 0.0
2018-Apr-17 22:30N 53°32' E 009°55'0 0.0
2018-Apr-17 22:00N 53°32' E 009°55'0 0.0
2018-Apr-17 21:30N 53°32' E 009°55'0 0.0
2018-Apr-17 21:00N 53°32' E 009°55'0 0.0
2018-Apr-17 20:30N 53°32' E 009°55'0 0.0
2018-Apr-17 20:00N 53°32' E 009°55'0 0.0
2018-Apr-17 19:30N 53°32' E 009°55'0 0.0
2018-Apr-17 19:00N 53°32' E 009°55'0 0.0
2018-Apr-17 18:30N 53°32' E 009°55'0 0.0
2018-Apr-17 18:00N 53°32' E 009°55'0 0.0
2018-Apr-17 17:30N 53°32' E 009°55'0 0.0
2018-Apr-17 17:00N 53°32' E 009°55'0 0.0
2018-Apr-17 16:30N 53°32' E 009°55'0 0.0
2018-Apr-17 16:00N 53°32' E 009°55'0 0.0
2018-Apr-17 15:30N 53°32' E 009°55'0 0.0
2018-Apr-17 15:00N 53°32' E 009°55'0 0.0
2018-Apr-17 14:30N 53°32' E 009°55'0 0.0
2018-Apr-17 14:00N 53°32' E 009°55'0 0.0
2018-Apr-17 13:30N 53°32' E 009°55'0 0.0
2018-Apr-17 13:00N 53°32' E 009°55'0 0.2
2018-Apr-17 12:30N 53°32' E 009°55'1 2.1
2018-Apr-17 11:59N 53°32' E 009°54'0 0.2
2018-Apr-17 11:29N 53°32' E 009°54'0 0.0
2018-Apr-17 10:59N 53°32' E 009°54'0 0.0
2018-Apr-17 10:29N 53°32' E 009°54'0 0.0
2018-Apr-17 09:59N 53°32' E 009°54'0 0.0
2018-Apr-17 09:29N 53°32' E 009°54'0 0.0
2018-Apr-17 08:59N 53°32' E 009°54'0 0.0
2018-Apr-17 08:29N 53°32' E 009°54'0 0.0
2018-Apr-17 07:59N 53°32' E 009°54'0 0.0
2018-Apr-17 07:29N 53°32' E 009°54'0 0.0
2018-Apr-17 06:59N 53°32' E 009°54'0 0.0
2018-Apr-17 06:29N 53°32' E 009°54'0 0.0
2018-Apr-17 05:59N 53°32' E 009°54'0 0.0
2018-Apr-17 05:29N 53°32' E 009°54'0 0.0
2018-Apr-17 04:59N 53°32' E 009°54'1 3.1
2018-Apr-17 04:30N 53°31' E 009°56'1 2.2
2018-Apr-17 04:00N 53°30' E 009°56'0 0.0
2018-Apr-17 03:30N 53°30' E 009°56'0 0.0
2018-Apr-17 03:00N 53°30' E 009°56'0 0.0
2018-Apr-17 02:30N 53°30' E 009°56'0 0.0
2018-Apr-17 02:00N 53°30' E 009°56'0 0.0
2018-Apr-17 01:30N 53°30' E 009°56'0 0.0
2018-Apr-17 01:00N 53°30' E 009°56'0 0.0
2018-Apr-17 00:30N 53°30' E 009°56'0 0.0
2018-Apr-17 00:00N 53°30' E 009°56'2 4.3
2018-Apr-16 23:30N 53°32' E 009°55'611.4
2018-Apr-16 23:00N 53°34' E 009°46'611.9
2018-Apr-16 22:30N 53°35' E 009°36'612.3
2018-Apr-16 22:00N 53°40' E 009°30'612.1
2018-Apr-16 21:30N 53°45' E 009°24'612.1
2018-Apr-16 21:00N 53°51' E 009°20'611.9
2018-Apr-16 20:30N 53°53' E 009°10'5 9.4
2018-Apr-16 20:01N 53°52' E 009°02'611.1
2018-Apr-16 19:31N 53°50' E 008°53'510.5
2018-Apr-16 19:00N 53°52' E 008°44'510.1
2018-Apr-16 18:30N 53°56' E 008°40'511.0
2018-Apr-16 18:00N 53°58' E 008°31'611.5
2018-Apr-16 17:30N 53°59' E 008°22'713.1
2018-Apr-16 17:01N 53°60' E 008°11'714.1
2018-Apr-16 16:30N 53°57' E 007°59'610.5
2018-Apr-16 15:57N 53°52' E 007°55'715.1
2018-Apr-16 15:30N 53°50' E 008°06'816.8
2018-Apr-16 15:00N 53°44' E 008°15'816.3
2018-Apr-16 14:30N 53°39' E 008°26'5 9.0
2018-Apr-16 13:58N 53°35' E 008°32'0 0.0
2018-Apr-16 13:28N 53°35' E 008°32'0 0.0
2018-Apr-16 12:58N 53°35' E 008°32'0 0.0
2018-Apr-16 12:28N 53°35' E 008°32'0 0.0
2018-Apr-16 11:58N 53°35' E 008°32'0 0.0
2018-Apr-16 11:28N 53°35' E 008°32'0 0.0
2018-Apr-16 10:58N 53°35' E 008°32'0 0.0
2018-Apr-16 10:28N 53°35' E 008°32'0 0.0
2018-Apr-16 09:58N 53°35' E 008°32'0 0.5
2018-Apr-16 09:30N 53°35' E 008°31'0 0.8
2018-Apr-16 09:00N 53°36' E 008°31'0 0.0
2018-Apr-16 08:30N 53°36' E 008°31'0 0.0
2018-Apr-16 08:00N 53°36' E 008°31'0 0.0
2018-Apr-16 07:30N 53°36' E 008°31'0 0.0
2018-Apr-16 07:00N 53°36' E 008°31'0 0.0
2018-Apr-16 06:30N 53°36' E 008°31'0 0.0
2018-Apr-16 06:00N 53°36' E 008°31'0 0.0
2018-Apr-16 05:30N 53°36' E 008°31'0 0.0
2018-Apr-16 05:00N 53°36' E 008°31'0 0.0
2018-Apr-16 04:30N 53°36' E 008°31'0 0.0
2018-Apr-16 04:00N 53°36' E 008°31'0 0.2
2018-Apr-16 03:30N 53°36' E 008°31'4 8.7
2018-Apr-16 03:00N 53°38' E 008°25'510.5
2018-Apr-16 02:30N 53°42' E 008°19'611.2
2018-Apr-16 02:00N 53°46' E 008°11'510.6
2018-Apr-16 01:30N 53°49' E 008°05'611.8
2018-Apr-16 01:00N 53°52' E 007°56'4 7.2
2018-Apr-16 00:28N 53°55' E 007°56'614.1
2018-Apr-16 00:00N 53°60' E 008°04'1112.5
2018-Apr-15 23:09N 53°59' E 008°23'213.7
2018-Apr-15 23:00N 53°59' E 008°26'712.8
2018-Apr-15 22:30N 53°58' E 008°37'511.2
2018-Apr-15 22:00N 53°53' E 008°42'510.6
2018-Apr-15 21:30N 53°50' E 008°50'612.2
2018-Apr-15 21:00N 53°51' E 009°00'611.0
2018-Apr-15 20:30N 53°54' E 009°09'0 0.1
2018-Apr-15 20:00N 53°54' E 009°09'1 2.6
2018-Apr-15 19:30N 53°55' E 009°10'4 8.6
2018-Apr-15 19:00N 53°58' E 009°15'4 8.4
2018-Apr-15 18:30N 54°02' E 009°18'4 8.0
2018-Apr-15 18:00N 54°06' E 009°20'4 7.9
2018-Apr-15 17:30N 54°09' E 009°22'4 8.7
2018-Apr-15 17:00N 54°11' E 009°29'4 8.9
2018-Apr-15 16:30N 54°13' E 009°36'4 7.9
2018-Apr-15 16:00N 54°17' E 009°38'4 7.0
2018-Apr-15 15:30N 54°19' E 009°43'2 4.5
2018-Apr-15 15:00N 54°21' E 009°45'4 7.6
2018-Apr-15 14:26N 54°21' E 009°53'4 7.8
2018-Apr-15 13:57N 54°21' E 009°59'14 5.0
2018-Apr-15 11:06N 54°30' E 010°18'110.4
2018-Apr-15 11:00N 54°30' E 010°19'713.8
2018-Apr-15 10:30N 54°33' E 010°30'  

Dump ship's entire track history